createdAt,value
2019-05-13T00:00:05.687Z,52.40
2019-05-13T00:02:34.789Z,52.70
2019-05-13T00:05:04.002Z,52.80
2019-05-13T00:07:34.223Z,53.10
2019-05-13T00:10:04.163Z,53.20
2019-05-13T00:12:35.392Z,53.20
2019-05-13T00:15:04.310Z,53.20
2019-05-13T00:17:33.867Z,53.40
2019-05-13T00:20:03.940Z,53.00
2019-05-13T00:22:33.973Z,53.20
2019-05-13T00:25:04.016Z,53.50
2019-05-13T00:27:33.847Z,53.50
2019-05-13T00:30:04.255Z,53.40
2019-05-13T00:32:33.719Z,53.30
2019-05-13T00:35:03.939Z,53.20
2019-05-13T00:37:33.408Z,53.80
2019-05-13T00:40:03.964Z,53.70
2019-05-13T00:42:33.481Z,53.90
2019-05-13T00:45:04.082Z,54.20
2019-05-13T00:47:34.195Z,54.00
2019-05-13T00:50:03.731Z,54.10
2019-05-13T00:52:33.951Z,54.30
2019-05-13T00:55:04.266Z,54.70
2019-05-13T00:57:34.186Z,54.80
2019-05-13T01:00:03.624Z,55.00
2019-05-13T01:02:33.793Z,55.30
2019-05-13T01:05:04.336Z,55.80
2019-05-13T01:07:34.140Z,55.90
2019-05-13T01:10:04.226Z,56.40
2019-05-13T01:12:34.487Z,57.30
2019-05-13T01:15:04.089Z,57.60
2019-05-13T01:17:34.018Z,57.60
2019-05-13T01:20:04.213Z,57.80
2019-05-13T01:22:34.373Z,57.80
2019-05-13T01:25:04.047Z,59.40
2019-05-13T01:27:33.451Z,59.00
2019-05-13T01:30:04.133Z,58.80
2019-05-13T01:32:34.311Z,59.00
2019-05-13T01:35:04.604Z,58.90
2019-05-13T01:37:42.339Z,59.10
2019-05-13T01:40:05.170Z,60.90
2019-05-13T01:42:34.311Z,60.00
2019-05-13T01:45:04.646Z,61.80
2019-05-13T01:47:34.507Z,63.30
2019-05-13T01:50:04.140Z,63.30
2019-05-13T01:52:34.370Z,63.60
2019-05-13T01:55:04.155Z,63.70
2019-05-13T01:57:34.283Z,64.50
2019-05-13T02:00:04.662Z,64.50
2019-05-13T02:02:33.803Z,66.00
2019-05-13T02:05:03.935Z,66.30
2019-05-13T02:07:33.516Z,66.00
2019-05-13T02:10:04.352Z,66.40
2019-05-13T02:12:33.990Z,67.30
2019-05-13T02:15:04.472Z,68.80
2019-05-13T02:17:33.757Z,69.00
2019-05-13T02:20:03.981Z,68.70
2019-05-13T02:22:33.616Z,68.80
2019-05-13T02:25:04.418Z,68.80
2019-05-13T02:27:34.473Z,69.60
2019-05-13T02:30:05.548Z,69.80
2019-05-13T02:32:34.014Z,69.90
2019-05-13T02:35:03.153Z,70.00
2019-05-13T02:37:34.306Z,70.40
2019-05-13T02:40:03.928Z,70.90
2019-05-13T02:42:33.324Z,71.80
2019-05-13T02:45:03.808Z,71.80
2019-05-13T02:47:33.218Z,73.50
2019-05-13T02:50:05.077Z,73.70
2019-05-13T02:52:33.605Z,74.00
2019-05-13T02:55:03.959Z,75.10
2019-05-13T02:57:33.299Z,76.40
2019-05-13T03:00:04.218Z,78.10
2019-05-13T03:02:32.956Z,79.40
2019-05-13T03:05:03.178Z,80.70
2019-05-13T03:07:33.356Z,81.30
2019-05-13T03:10:04.198Z,81.90
2019-05-13T03:12:33.053Z,82.40
2019-05-13T03:15:02.788Z,84.20
2019-05-13T03:17:43.272Z,86.40
2019-05-13T03:20:16.565Z,87.60
2019-05-13T03:22:43.504Z,88.20
2019-05-13T03:25:13.175Z,88.80
2019-05-13T03:27:42.964Z,89.00
2019-05-13T03:30:16.353Z,91.30
2019-05-13T03:32:51.765Z,91.30
2019-05-13T03:35:16.494Z,91.70
2019-05-13T03:37:44.041Z,92.10
2019-05-13T03:40:13.644Z,92.60
2019-05-13T03:42:45.345Z,93.00
2019-05-13T03:45:14.325Z,94.20
2019-05-13T03:47:43.436Z,94.20
2019-05-13T03:50:13.048Z,94.30
2019-05-13T03:52:43.338Z,94.60
2019-05-13T03:55:13.145Z,94.80
2019-05-13T03:57:42.775Z,96.90
2019-05-13T04:00:13.129Z,97.10
2019-05-13T04:02:42.964Z,97.40
2019-05-13T04:05:13.327Z,97.40
2019-05-13T04:07:43.652Z,97.80
2019-05-13T04:10:13.307Z,97.70
2019-05-13T04:12:42.803Z,98.10
2019-05-13T04:15:12.733Z,98.20
2019-05-13T04:17:42.779Z,98.60
2019-05-13T04:20:12.721Z,99.00
2019-05-13T04:22:42.613Z,99.40
2019-05-13T04:25:12.842Z,99.90
2019-05-13T04:27:42.906Z,99.90
2019-05-13T04:30:13.449Z,99.90
2019-05-13T04:32:44.204Z,99.90
2019-05-13T04:35:13.431Z,99.90
2019-05-13T04:37:43.252Z,99.90
2019-05-13T04:40:12.852Z,99.90
2019-05-13T04:42:42.634Z,99.90
2019-05-13T04:45:13.379Z,99.90
2019-05-13T04:47:43.355Z,99.90
2019-05-13T04:50:12.978Z,99.90
2019-05-13T04:52:42.456Z,99.90
2019-05-13T04:55:13.137Z,99.90
2019-05-13T04:57:43.748Z,99.90
2019-05-13T05:00:13.228Z,99.90
2019-05-13T05:02:57.345Z,99.90
2019-05-13T05:05:52.649Z,99.90
2019-05-13T05:08:33.397Z,99.90
2019-05-13T05:11:32.358Z,99.90
2019-05-13T05:14:26.932Z,99.90
2019-05-13T05:17:35.929Z,99.90
2019-05-13T05:20:32.240Z,99.90
2019-05-13T05:23:15.512Z,99.90
2019-05-13T05:26:26.687Z,99.90
2019-05-13T05:29:32.855Z,99.90
2019-05-13T05:32:44.129Z,99.90
2019-05-13T05:35:32.412Z,99.90
2019-05-13T05:38:34.254Z,99.90
2019-05-13T05:41:05.021Z,99.90
2019-05-13T05:43:36.153Z,99.90
2019-05-13T05:46:05.310Z,99.90
2019-05-13T05:48:35.931Z,99.90
2019-05-13T05:51:05.234Z,99.90
2019-05-13T05:53:35.773Z,99.90
2019-05-13T05:56:05.057Z,99.90
2019-05-13T05:58:34.816Z,99.90
2019-05-13T06:01:04.473Z,99.90
2019-05-13T06:03:35.838Z,99.90
2019-05-13T06:06:04.933Z,99.90
2019-05-13T06:08:33.962Z,99.90
2019-05-13T06:11:04.205Z,99.90
2019-05-13T06:13:34.535Z,99.90
2019-05-13T06:16:03.976Z,99.90
2019-05-13T06:18:33.795Z,99.90
2019-05-13T06:21:04.026Z,99.90
2019-05-13T06:23:33.143Z,99.90
2019-05-13T06:26:02.403Z,99.90
2019-05-13T06:28:32.229Z,99.90
2019-05-13T06:31:02.568Z,99.90
2019-05-13T06:33:32.097Z,99.90
2019-05-13T06:36:01.434Z,99.90
2019-05-13T06:38:31.670Z,99.90
2019-05-13T06:41:06.743Z,99.90
2019-05-13T06:43:31.922Z,99.90
2019-05-13T06:46:01.858Z,99.90
2019-05-13T06:48:32.369Z,99.90
2019-05-13T06:51:02.611Z,99.90
2019-05-13T06:53:32.275Z,99.90
2019-05-13T06:56:04.333Z,99.90
2019-05-13T06:58:33.497Z,99.90
2019-05-13T07:01:03.684Z,99.90
2019-05-13T07:03:33.053Z,99.90
2019-05-13T07:06:01.980Z,99.90
2019-05-13T07:08:31.412Z,99.90
2019-05-13T07:11:17.167Z,99.90
2019-05-13T07:13:32.246Z,99.90
2019-05-13T07:16:01.480Z,99.90
2019-05-13T07:18:32.323Z,99.90
2019-05-13T07:21:02.214Z,99.90
2019-05-13T07:23:31.964Z,99.90
2019-05-13T07:26:01.916Z,99.90
2019-05-13T07:28:32.292Z,99.90
2019-05-13T07:31:02.242Z,99.90
2019-05-13T07:33:32.185Z,99.90
2019-05-13T07:36:03.518Z,99.90
2019-05-13T07:38:32.793Z,99.90
2019-05-13T07:41:03.926Z,99.90
2019-05-13T07:43:32.986Z,99.90
2019-05-13T07:46:02.200Z,99.90
2019-05-13T07:48:32.081Z,99.90
2019-05-13T07:51:04.315Z,99.90
2019-05-13T07:53:32.321Z,99.90
2019-05-13T07:56:02.109Z,99.90
2019-05-13T07:58:36.828Z,99.90
2019-05-13T08:01:02.553Z,99.90
2019-05-13T08:03:31.883Z,98.90
2019-05-13T08:06:02.021Z,97.30
2019-05-13T08:08:32.343Z,98.60
2019-05-13T08:11:01.580Z,97.80
2019-05-13T08:13:31.445Z,97.40
2019-05-13T08:16:01.860Z,97.30
2019-05-13T08:18:32.059Z,94.30
2019-05-13T08:21:02.263Z,90.10
2019-05-13T08:23:32.346Z,87.10
2019-05-13T08:26:02.184Z,88.60
2019-05-13T08:28:32.361Z,90.00
2019-05-13T08:31:02.041Z,85.60
2019-05-13T08:33:32.125Z,83.70
2019-05-13T08:36:01.741Z,80.90
2019-05-13T08:38:31.855Z,81.90
2019-05-13T08:41:01.972Z,82.10
2019-05-13T08:43:31.813Z,83.80
2019-05-13T08:46:01.957Z,83.70
2019-05-13T08:48:32.296Z,81.40
2019-05-13T08:51:03.119Z,78.40
2019-05-13T08:53:32.418Z,78.60
2019-05-13T08:56:01.874Z,77.80
2019-05-13T08:58:32.106Z,70.90
2019-05-13T09:01:02.456Z,70.20
2019-05-13T09:03:32.508Z,67.30
2019-05-13T09:06:03.046Z,66.00
2019-05-13T09:08:32.208Z,62.40
2019-05-13T09:11:04.921Z,58.90
2019-05-13T09:13:34.469Z,57.80
2019-05-13T09:16:08.164Z,57.60
2019-05-13T09:18:56.401Z,55.70
2019-05-13T09:21:25.300Z,52.70
2019-05-13T09:23:54.947Z,54.70
2019-05-13T09:26:23.901Z,57.60
2019-05-13T09:28:52.983Z,58.50
2019-05-13T09:31:22.276Z,57.10
2019-05-13T09:33:52.089Z,56.80
2019-05-13T09:36:21.869Z,58.70
2019-05-13T09:38:52.499Z,56.30
2019-05-13T09:41:22.181Z,56.40
2019-05-13T09:43:51.536Z,56.80
2019-05-13T09:46:22.616Z,56.00
2019-05-13T09:48:51.762Z,54.60
2019-05-13T09:51:21.646Z,53.40
2019-05-13T09:53:51.997Z,53.10
2019-05-13T09:56:22.405Z,52.60
2019-05-13T09:58:51.790Z,53.90
2019-05-13T10:01:22.636Z,55.20
2019-05-13T10:03:54.817Z,56.00
2019-05-13T10:06:22.533Z,54.90
2019-05-13T10:08:52.810Z,54.50
2019-05-13T10:11:22.280Z,51.30
2019-05-13T10:13:51.903Z,47.90
2019-05-13T10:16:22.027Z,49.10
2019-05-13T10:18:52.484Z,51.80
2019-05-13T10:21:22.055Z,52.50
2019-05-13T10:23:52.257Z,53.40
2019-05-13T10:26:22.550Z,54.90
2019-05-13T10:28:52.057Z,55.30
2019-05-13T10:31:22.040Z,51.30
2019-05-13T10:33:51.657Z,51.40
2019-05-13T10:36:22.207Z,51.70
2019-05-13T10:38:52.305Z,50.20
2019-05-13T10:41:22.905Z,49.00
2019-05-13T10:43:52.236Z,48.10
2019-05-13T10:46:22.149Z,47.70
2019-05-13T10:48:52.694Z,43.10
2019-05-13T10:51:22.490Z,40.70
2019-05-13T10:53:53.559Z,40.00
2019-05-13T10:56:22.596Z,38.30
2019-05-13T10:58:53.343Z,34.00
2019-05-13T11:01:34.159Z,33.70
2019-05-13T11:04:03.452Z,31.40
2019-05-13T11:06:32.672Z,33.60
2019-05-13T11:09:02.306Z,33.40
2019-05-13T11:11:33.060Z,34.60
2019-05-13T11:14:10.056Z,33.10
2019-05-13T11:16:32.893Z,31.40
2019-05-13T11:19:02.926Z,34.70
2019-05-13T11:21:32.262Z,38.10
2019-05-13T11:24:03.345Z,41.00
2019-05-13T11:26:36.163Z,39.70
2019-05-13T11:29:02.987Z,35.60
2019-05-13T11:31:32.911Z,34.80
2019-05-13T11:34:02.206Z,35.30
2019-05-13T11:36:33.289Z,33.30
2019-05-13T11:39:02.955Z,37.00
2019-05-13T11:41:32.706Z,37.50
2019-05-13T11:44:12.714Z,41.50
2019-05-13T11:46:33.293Z,42.30
2019-05-13T11:49:02.781Z,41.60
2019-05-13T11:51:32.360Z,41.70
2019-05-13T11:54:02.596Z,40.00
2019-05-13T11:56:33.785Z,37.80
2019-05-13T11:59:04.411Z,34.50
2019-05-13T12:01:33.702Z,32.00
2019-05-13T12:04:03.110Z,33.20
2019-05-13T12:06:33.894Z,34.90
2019-05-13T12:09:03.800Z,33.50
2019-05-13T12:11:33.302Z,33.20
2019-05-13T12:14:02.690Z,33.80
2019-05-13T12:16:35.032Z,34.00
2019-05-13T12:21:33.154Z,34.60
2019-05-13T12:24:09.494Z,35.00
2019-05-13T12:26:33.409Z,34.20
2019-05-13T12:29:03.005Z,35.30
2019-05-13T12:31:33.566Z,35.60
2019-05-13T12:34:03.695Z,34.70
2019-05-13T12:36:33.402Z,32.90
2019-05-13T12:39:02.521Z,33.90
2019-05-13T12:41:33.041Z,36.40
2019-05-13T12:44:02.231Z,37.00
2019-05-13T12:46:31.248Z,36.50
2019-05-13T12:49:03.702Z,36.70
2019-05-13T12:51:32.518Z,35.80
2019-05-13T12:54:03.759Z,36.80
2019-05-13T12:56:33.374Z,36.30
2019-05-13T12:59:03.218Z,35.40
2019-05-13T13:01:34.623Z,35.50
2019-05-13T13:04:03.723Z,35.10
2019-05-13T13:06:40.246Z,35.80
2019-05-13T13:09:04.486Z,36.60
2019-05-13T13:11:33.491Z,36.90
2019-05-13T13:14:05.868Z,38.70
2019-05-13T13:17:16.749Z,37.70
2019-05-13T13:22:55.260Z,37.00
2019-05-13T13:25:24.215Z,37.60
2019-05-13T13:28:26.540Z,36.90
2019-05-13T13:31:04.117Z,36.60
2019-05-13T13:33:36.571Z,35.80
2019-05-13T13:36:19.107Z,36.20
2019-05-13T13:38:48.121Z,37.70
2019-05-13T13:41:22.721Z,37.60
2019-05-13T13:43:47.576Z,36.60
2019-05-13T13:46:42.312Z,37.60
2019-05-13T13:48:57.897Z,36.90
2019-05-13T13:51:27.187Z,38.90
2019-05-13T13:53:56.903Z,39.90
2019-05-13T13:56:25.909Z,40.20
2019-05-13T13:58:54.879Z,40.30
2019-05-13T14:01:27.451Z,40.80
2019-05-13T14:03:54.270Z,40.30
2019-05-13T14:07:03.038Z,34.70
2019-05-13T14:07:22.186Z,39.10
2019-05-13T14:08:54.153Z,38.10
2019-05-13T14:11:23.430Z,39.50
2019-05-13T14:13:52.666Z,40.00
2019-05-13T14:16:29.550Z,39.40
2019-05-13T14:18:52.726Z,39.90
2019-05-13T14:21:21.889Z,39.70
2019-05-13T14:23:51.977Z,38.90
2019-05-13T14:26:22.173Z,38.30
2019-05-13T14:29:02.389Z,40.00
2019-05-13T14:31:41.217Z,39.40
2019-05-13T14:34:22.321Z,39.30
2019-05-13T14:36:51.758Z,38.50
2019-05-13T14:39:24.253Z,37.50
2019-05-13T14:41:53.181Z,38.50
2019-05-13T14:44:22.850Z,40.80
2019-05-13T14:47:01.582Z,42.20
2019-05-13T14:49:31.689Z,41.50
2019-05-13T14:52:01.389Z,41.70
2019-05-13T14:54:33.352Z,42.20
2019-05-13T14:57:02.622Z,42.80
2019-05-13T14:59:31.711Z,43.10
2019-05-13T15:02:01.442Z,43.40
2019-05-13T15:04:32.493Z,42.40
2019-05-13T15:07:28.320Z,41.30
2019-05-13T15:10:07.183Z,40.70
2019-05-13T15:12:36.104Z,40.90
2019-05-13T15:18:22.308Z,41.00
2019-05-13T15:20:52.954Z,40.30
2019-05-13T15:23:31.715Z,40.40
2019-05-13T15:26:02.271Z,41.30
2019-05-13T15:28:31.978Z,41.30
2019-05-13T15:31:01.082Z,41.00
2019-05-13T15:33:35.307Z,40.80
2019-05-13T15:36:04.231Z,41.30
2019-05-13T15:38:37.500Z,40.70
2019-05-13T15:41:06.553Z,40.20
2019-05-13T15:43:35.535Z,40.70
2019-05-13T15:46:04.528Z,40.60
2019-05-13T15:48:33.659Z,40.80
2019-05-13T15:51:02.485Z,41.30
2019-05-13T15:53:32.219Z,38.40
2019-05-13T15:56:02.555Z,37.90
2019-05-13T15:58:40.191Z,37.10
2019-05-13T16:01:03.085Z,37.00
2019-05-13T16:03:32.355Z,35.30
2019-05-13T16:06:01.839Z,36.10
2019-05-13T16:08:32.030Z,36.80
2019-05-13T16:11:02.212Z,36.80
2019-05-13T16:13:32.022Z,37.10
2019-05-13T16:16:02.903Z,38.50
2019-05-13T16:18:32.005Z,38.90
2019-05-13T16:21:01.734Z,39.50
2019-05-13T16:23:32.349Z,41.40
2019-05-13T16:26:04.669Z,42.30
2019-05-13T16:28:33.601Z,43.10
2019-05-13T16:31:02.725Z,43.60
2019-05-13T16:33:31.994Z,44.10
2019-05-13T16:36:02.551Z,44.20
2019-05-13T16:38:32.880Z,44.40
2019-05-13T16:41:02.415Z,44.70
2019-05-13T16:43:32.079Z,44.90
2019-05-13T16:46:01.313Z,44.80
2019-05-13T16:48:32.389Z,44.70
2019-05-13T16:51:01.023Z,44.80
2019-05-13T16:53:31.496Z,45.10
2019-05-13T16:56:01.712Z,44.90
2019-05-13T16:58:32.454Z,44.60
2019-05-13T17:01:02.676Z,44.80
2019-05-13T17:03:32.112Z,44.80
2019-05-13T17:06:02.149Z,45.30
2019-05-13T17:08:31.985Z,44.40
2019-05-13T17:11:02.180Z,44.50
2019-05-13T17:13:31.755Z,44.90
2019-05-13T17:16:01.562Z,44.30
2019-05-13T17:18:32.343Z,44.40
2019-05-13T17:21:01.694Z,44.50
2019-05-13T17:23:30.811Z,45.00
2019-05-13T17:26:01.933Z,45.40
2019-05-13T17:28:33.845Z,45.40
2019-05-13T17:31:02.164Z,45.40
2019-05-13T17:33:31.931Z,45.30
2019-05-13T17:36:01.940Z,45.20
2019-05-13T17:38:32.428Z,44.90
2019-05-13T17:41:02.312Z,45.30
2019-05-13T17:43:32.167Z,45.30
2019-05-13T17:46:01.901Z,45.00
2019-05-13T17:48:32.968Z,45.20
2019-05-13T17:51:01.610Z,45.60
2019-05-13T17:53:32.596Z,45.20
2019-05-13T17:56:02.394Z,45.50
2019-05-13T17:58:31.746Z,45.60
2019-05-13T18:01:01.783Z,46.20
2019-05-13T18:03:32.129Z,46.00
2019-05-13T18:06:02.374Z,45.80
2019-05-13T18:08:32.208Z,45.60
2019-05-13T18:11:02.347Z,45.90
2019-05-13T18:13:31.676Z,46.20
2019-05-13T18:16:02.407Z,45.30
2019-05-13T18:18:43.204Z,44.70
2019-05-13T18:21:03.362Z,44.70
2019-05-13T18:23:32.540Z,44.10
2019-05-13T18:26:02.081Z,44.20
2019-05-13T18:28:31.792Z,44.70
2019-05-13T18:31:01.768Z,45.40
2019-05-13T18:33:31.951Z,46.00
2019-05-13T18:36:01.994Z,46.20
2019-05-13T18:38:31.612Z,46.00
2019-05-13T18:41:01.742Z,45.90
2019-05-13T18:43:32.122Z,46.30
2019-05-13T18:46:02.329Z,47.80
2019-05-13T18:48:32.482Z,48.30
2019-05-13T18:51:02.084Z,49.10
2019-05-13T18:53:32.135Z,49.90
2019-05-13T18:56:02.305Z,50.60
2019-05-13T18:58:31.895Z,50.90
2019-05-13T19:01:01.631Z,51.10
2019-05-13T19:03:32.251Z,51.60
2019-05-13T19:06:01.805Z,52.00
2019-05-13T19:08:32.045Z,52.30
2019-05-13T19:11:01.433Z,52.60
2019-05-13T19:13:32.308Z,53.00
2019-05-13T19:16:03.306Z,52.50
2019-05-13T19:18:33.801Z,52.80
2019-05-13T19:21:04.806Z,52.70
2019-05-13T19:23:34.171Z,52.50
2019-05-13T19:26:04.952Z,52.90
2019-05-13T19:28:34.091Z,53.30
2019-05-13T19:31:06.210Z,53.60
2019-05-13T19:33:35.926Z,53.90
2019-05-13T19:36:05.527Z,54.50
2019-05-13T19:38:35.283Z,54.30
2019-05-13T19:41:04.357Z,54.30
2019-05-13T19:43:33.913Z,54.50
2019-05-13T19:46:03.136Z,54.40
2019-05-13T19:48:33.304Z,55.10
2019-05-13T19:51:06.483Z,55.60
2019-05-13T19:53:36.163Z,55.10
2019-05-13T19:56:11.891Z,55.40
2019-05-13T19:58:41.110Z,55.30
2019-05-13T20:01:11.707Z,55.40
2019-05-13T20:03:43.027Z,55.20
2019-05-13T20:06:13.234Z,55.40
2019-05-13T20:08:45.475Z,55.00
2019-05-13T20:11:15.044Z,55.40
2019-05-13T20:13:44.411Z,55.60
2019-05-13T20:16:18.245Z,56.00
2019-05-13T20:18:47.797Z,56.50
2019-05-13T20:21:21.359Z,56.30
2019-05-13T20:23:51.855Z,56.00
2019-05-13T20:26:21.770Z,56.30
2019-05-13T20:28:51.845Z,56.90
2019-05-13T20:31:21.718Z,56.60
2019-05-13T20:33:56.423Z,57.60
2019-05-13T20:36:25.909Z,56.80
2019-05-13T20:39:14.091Z,56.50
2019-05-13T20:41:43.897Z,56.80
2019-05-13T20:44:15.027Z,57.30
2019-05-13T20:46:44.061Z,57.60
2019-05-13T20:49:16.433Z,57.80
2019-05-13T20:51:45.421Z,58.50
2019-05-13T20:54:14.560Z,58.50
2019-05-13T20:56:43.511Z,58.40
2019-05-13T20:59:12.523Z,59.00
2019-05-13T21:01:42.037Z,58.60
2019-05-13T21:04:12.386Z,59.00
2019-05-13T21:06:44.677Z,59.00
2019-05-13T21:09:16.912Z,59.20
2019-05-13T21:11:44.618Z,59.40
2019-05-13T21:14:13.925Z,59.60
2019-05-13T21:16:44.137Z,60.20
2019-05-13T21:19:13.003Z,60.30
2019-05-13T21:21:42.118Z,60.50
2019-05-13T21:24:10.993Z,60.80
2019-05-13T21:26:41.841Z,61.00
2019-05-13T21:29:11.098Z,61.40
2019-05-13T21:31:41.462Z,61.60
2019-05-13T21:34:11.917Z,61.90
2019-05-13T21:36:41.380Z,62.20
2019-05-13T21:39:12.380Z,62.40
2019-05-13T21:41:41.447Z,62.10
2019-05-13T21:44:11.869Z,63.30
2019-05-13T21:46:41.277Z,62.40
2019-05-13T21:49:11.873Z,63.20
2019-05-13T21:51:41.712Z,62.70
2019-05-13T21:54:11.757Z,63.10
2019-05-13T21:56:42.688Z,63.40
2019-05-13T21:59:11.940Z,63.70
2019-05-13T22:01:42.236Z,63.90
2019-05-13T22:04:12.297Z,63.60
2019-05-13T22:06:41.690Z,63.60
2019-05-13T22:09:11.828Z,64.10
2019-05-13T22:11:42.027Z,64.20
2019-05-13T22:14:11.436Z,64.20
2019-05-13T22:16:41.217Z,64.80
2019-05-13T22:19:12.209Z,65.70
2019-05-13T22:21:42.395Z,66.40
2019-05-13T22:24:11.807Z,66.80
2019-05-13T22:26:41.985Z,67.70
2019-05-13T22:29:11.267Z,67.90
2019-05-13T22:31:42.055Z,68.60
2019-05-13T22:34:12.105Z,69.20
2019-05-13T22:36:41.338Z,69.50
2019-05-13T22:39:11.483Z,69.30
2019-05-13T22:41:42.126Z,70.10
2019-05-13T22:44:11.771Z,70.40
2019-05-13T22:46:41.428Z,70.50
2019-05-13T22:49:11.641Z,70.70
2019-05-13T22:51:41.392Z,69.80
2019-05-13T22:54:11.909Z,68.70
2019-05-13T22:56:41.328Z,68.30
2019-05-13T22:59:12.272Z,70.20
2019-05-13T23:01:41.888Z,69.50
2019-05-13T23:04:11.497Z,69.20
2019-05-13T23:06:40.737Z,70.40
2019-05-13T23:09:12.345Z,71.20
2019-05-13T23:11:41.793Z,71.90
2019-05-13T23:14:13.498Z,72.40
2019-05-13T23:16:42.132Z,73.00
2019-05-13T23:19:11.798Z,73.10
2019-05-13T23:21:41.821Z,73.60
2019-05-13T23:24:11.388Z,76.40
2019-05-13T23:26:42.234Z,76.30
2019-05-13T23:29:11.103Z,75.70
2019-05-13T23:31:41.763Z,75.50
2019-05-13T23:34:12.082Z,77.00
2019-05-13T23:36:42.288Z,77.90
2019-05-13T23:39:11.873Z,78.40
2019-05-13T23:41:41.746Z,77.70
2019-05-13T23:44:24.182Z,77.40
2019-05-13T23:46:42.054Z,76.90
2019-05-13T23:49:11.885Z,78.80
2019-05-13T23:51:41.472Z,79.40
2019-05-13T23:54:22.984Z,80.80
2019-05-13T23:56:52.255Z,81.30
2019-05-13T23:59:21.865Z,80.80
